AFR719 GOBD-LFPG
Flight info
| Callsign | AFR719 |
|---|---|
| Flight time | 4h 57m |
| Altitude | 39000 |
| Route | SAKLI1B SAKLI UR975 SEPEL DCT MINBA DCT ZRT UR975 ECHED DCT ADUBI DCT SVL DCT HIJ DCT RUSEM DCT SOTUK DCT USOKO DCT TLD DCT SIE DCT EDIGO DCT DGO L176 LUSEM DCT LULUT DCT POI DCT PEPAX UT182 KEPER |
| Aircraft | B77W/H-SDE2E3FGHIJ3J5M1P2RWXYZ/LB1D1 |
Departure
| Time | 2026-05-07 11:54 |
|---|---|
| Airport | Blaise Diagne International Airport (GOBD) |
Arrival
| Time | 2026-05-07 16:52 |
|---|---|
| Airport | Charles de Gaulle International Airport (LFPG) |
| Time | Latitude | Longitude | Altitude | Speed | Heading |
|---|---|---|---|---|---|
| 2026-05-07 11:34 | 14.66867 | -17.06866 | 307 ft | 0 kts | 90° |
| 2026-05-07 11:45 | 14.66867 | -17.06871 | 307 ft | 3 kts | 90° |
| 2026-05-07 11:46 | 14.66867 | -17.06890 | 306 ft | 3 kts | 90° |
| 2026-05-07 11:46 | 14.66867 | -17.06910 | 304 ft | 3 kts | 88° |
| 2026-05-07 11:46 | 14.66864 | -17.06929 | 306 ft | 3 kts | 86° |
| 2026-05-07 11:46 | 14.66865 | -17.06949 | 304 ft | 3 kts | 104° |
| 2026-05-07 11:47 | 14.66872 | -17.06967 | 307 ft | 3 kts | 121° |
| 2026-05-07 11:47 | 14.66877 | -17.06976 | 305 ft | 0 kts | 131° |
| 2026-05-07 11:47 | 14.66873 | -17.06973 | 306 ft | 1 kts | 143° |
| 2026-05-07 11:48 | 14.66857 | -17.06972 | 306 ft | 0 kts | 184° |
| 2026-05-07 11:49 | 14.66855 | -17.06972 | 306 ft | 3 kts | 184° |
| 2026-05-07 11:49 | 14.66813 | -17.06975 | 310 ft | 8 kts | 183° |
| 2026-05-07 11:49 | 14.66759 | -17.06975 | 309 ft | 9 kts | 179° |
| 2026-05-07 11:50 | 14.66689 | -17.06981 | 309 ft | 10 kts | 198° |
| 2026-05-07 11:50 | 14.66661 | -17.07047 | 307 ft | 11 kts | 262° |
| 2026-05-07 11:50 | 14.66600 | -17.07085 | 307 ft | 11 kts | 187° |
| 2026-05-07 11:50 | 14.66510 | -17.07087 | 308 ft | 15 kts | 179° |
| 2026-05-07 11:51 | 14.66404 | -17.07085 | 306 ft | 15 kts | 179° |
| 2026-05-07 11:51 | 14.66299 | -17.07084 | 310 ft | 15 kts | 179° |
| 2026-05-07 11:51 | 14.66172 | -17.07082 | 308 ft | 21 kts | 179° |
| 2026-05-07 11:51 | 14.66027 | -17.07081 | 308 ft | 21 kts | 179° |
| 2026-05-07 11:52 | 14.65883 | -17.07080 | 310 ft | 21 kts | 179° |
| 2026-05-07 11:52 | 14.65751 | -17.07079 | 307 ft | 16 kts | 179° |
| 2026-05-07 11:52 | 14.65653 | -17.07078 | 309 ft | 14 kts | 179° |
| 2026-05-07 11:52 | 14.65564 | -17.07081 | 308 ft | 12 kts | 197° |
| 2026-05-07 11:53 | 14.65530 | -17.07156 | 307 ft | 13 kts | 265° |
| 2026-05-07 11:53 | 14.65541 | -17.07244 | 308 ft | 13 kts | 293° |
| 2026-05-07 11:53 | 14.65621 | -17.07269 | 306 ft | 13 kts | 359° |
| 2026-05-07 11:53 | 14.65866 | -17.07272 | 308 ft | 77 kts | 359° |
| 2026-05-07 11:54 | 14.66721 | -17.07281 | 310 ft | 162 kts | 359° |
| 2026-05-07 11:54 | 14.67914 | -17.07292 | 870 ft | 178 kts | 0° |
| 2026-05-07 11:54 | 14.69141 | -17.07305 | 1702 ft | 174 kts | 360° |
| 2026-05-07 11:54 | 14.70356 | -17.07313 | 2354 ft | 183 kts | 0° |
| 2026-05-07 11:55 | 14.71709 | -17.07330 | 2682 ft | 206 kts | 360° |
| 2026-05-07 11:55 | 14.73249 | -17.07344 | 2893 ft | 235 kts | 0° |
| 2026-05-07 11:55 | 14.74954 | -17.07358 | 3344 ft | 253 kts | 0° |
| 2026-05-07 11:55 | 14.76761 | -17.07374 | 3956 ft | 264 kts | 0° |
| 2026-05-07 11:56 | 14.78631 | -17.07391 | 4687 ft | 272 kts | 0° |
| 2026-05-07 11:56 | 14.80546 | -17.07410 | 5492 ft | 275 kts | 360° |
| 2026-05-07 11:56 | 14.82474 | -17.07427 | 6352 ft | 278 kts | 359° |
| 2026-05-07 11:56 | 14.84399 | -17.07443 | 7130 ft | 282 kts | 359° |
| 2026-05-07 11:57 | 14.86381 | -17.07462 | 7856 ft | 287 kts | 359° |
| 2026-05-07 11:57 | 14.88403 | -17.07481 | 8610 ft | 292 kts | 359° |
| 2026-05-07 11:57 | 14.90456 | -17.07501 | 9347 ft | 297 kts | 359° |
| 2026-05-07 11:57 | 14.92519 | -17.07521 | 10071 ft | 302 kts | 359° |
| 2026-05-07 11:58 | 14.94675 | -17.07542 | 10515 ft | 320 kts | 359° |
| 2026-05-07 11:58 | 14.97000 | -17.07563 | 10704 ft | 347 kts | 359° |
| 2026-05-07 11:58 | 14.99508 | -17.07587 | 10885 ft | 373 kts | 359° |
| 2026-05-07 11:58 | 15.02156 | -17.07612 | 11435 ft | 386 kts | 359° |
| 2026-05-07 11:59 | 15.04880 | -17.07638 | 12167 ft | 394 kts | 359° |
| 2026-05-07 11:59 | 15.07646 | -17.07665 | 13072 ft | 399 kts | 359° |
| 2026-05-07 11:59 | 15.10403 | -17.07691 | 13959 ft | 403 kts | 359° |
| 2026-05-07 11:59 | 15.13231 | -17.07717 | 14763 ft | 408 kts | 359° |
| 2026-05-07 12:00 | 15.16088 | -17.07742 | 15563 ft | 412 kts | 359° |
| 2026-05-07 12:00 | 15.18976 | -17.07768 | 16363 ft | 417 kts | 359° |
| 2026-05-07 12:00 | 15.21898 | -17.07794 | 17171 ft | 421 kts | 359° |
| 2026-05-07 12:00 | 15.24811 | -17.07822 | 17928 ft | 426 kts | 358° |
| 2026-05-07 12:01 | 15.27796 | -17.07851 | 18637 ft | 431 kts | 358° |
| 2026-05-07 12:01 | 15.30800 | -17.07877 | 19337 ft | 431 kts | 359° |
| 2026-05-07 12:01 | 15.33786 | -17.07719 | 19763 ft | 431 kts | 6° |
| 2026-05-07 12:01 | 15.36671 | -17.06743 | 20024 ft | 446 kts | 30° |
| 2026-05-07 12:02 | 15.39058 | -17.04714 | 20668 ft | 441 kts | 43° |
| 2026-05-07 12:02 | 15.41237 | -17.02467 | 21017 ft | 443 kts | 44° |
| 2026-05-07 12:02 | 15.43422 | -17.00177 | 21097 ft | 450 kts | 44° |
| 2026-05-07 12:02 | 15.45699 | -16.97912 | 21228 ft | 454 kts | 41° |
| 2026-05-07 12:03 | 15.48092 | -16.95761 | 21487 ft | 457 kts | 39° |
| 2026-05-07 12:03 | 15.50487 | -16.93629 | 22159 ft | 460 kts | 39° |
| 2026-05-07 12:03 | 15.52927 | -16.91457 | 22864 ft | 462 kts | 39° |
| 2026-05-07 12:03 | 15.55367 | -16.89303 | 23293 ft | 460 kts | 38° |
| 2026-05-07 12:04 | 15.57832 | -16.87144 | 23346 ft | 465 kts | 38° |
| 2026-05-07 12:04 | 15.60332 | -16.84966 | 23401 ft | 470 kts | 38° |
| 2026-05-07 12:04 | 15.62812 | -16.82805 | 23528 ft | 471 kts | 38° |
| 2026-05-07 12:04 | 15.65344 | -16.80595 | 23956 ft | 476 kts | 38° |
| 2026-05-07 12:05 | 15.67886 | -16.78367 | 24456 ft | 480 kts | 38° |
| 2026-05-07 12:05 | 15.70428 | -16.76132 | 24698 ft | 479 kts | 38° |
| 2026-05-07 12:05 | 15.72990 | -16.73876 | 24718 ft | 483 kts | 38° |
| 2026-05-07 12:05 | 15.75558 | -16.71613 | 24740 ft | 487 kts | 38° |
| 2026-05-07 12:06 | 15.78146 | -16.69330 | 24808 ft | 488 kts | 38° |
| 2026-05-07 12:06 | 15.80744 | -16.67039 | 24900 ft | 489 kts | 38° |
| 2026-05-07 12:06 | 15.83317 | -16.64769 | 24981 ft | 490 kts | 38° |
| 2026-05-07 12:06 | 15.85914 | -16.62477 | 25062 ft | 491 kts | 38° |
| 2026-05-07 12:07 | 15.88525 | -16.60173 | 25141 ft | 493 kts | 38° |
| 2026-05-07 12:07 | 15.91136 | -16.57868 | 25218 ft | 494 kts | 38° |
| 2026-05-07 12:07 | 15.93751 | -16.55559 | 25399 ft | 492 kts | 38° |
| 2026-05-07 12:07 | 15.96363 | -16.53250 | 25617 ft | 490 kts | 38° |
| 2026-05-07 12:08 | 15.98959 | -16.50955 | 25822 ft | 490 kts | 38° |
| 2026-05-07 12:08 | 16.01555 | -16.48662 | 26016 ft | 490 kts | 37° |
| 2026-05-07 12:08 | 16.04175 | -16.46463 | 26200 ft | 489 kts | 34° |
| 2026-05-07 12:08 | 16.06917 | -16.44357 | 26416 ft | 489 kts | 32° |
| 2026-05-07 12:09 | 16.09689 | -16.42294 | 26549 ft | 491 kts | 32° |
| 2026-05-07 12:09 | 16.12504 | -16.40217 | 26561 ft | 496 kts | 32° |
| 2026-05-07 12:09 | 16.15305 | -16.38157 | 26608 ft | 501 kts | 32° |
| 2026-05-07 12:09 | 16.18166 | -16.36048 | 26639 ft | 506 kts | 32° |
| 2026-05-07 12:10 | 16.21051 | -16.33916 | 26665 ft | 511 kts | 32° |
| 2026-05-07 12:10 | 16.23965 | -16.31756 | 26704 ft | 513 kts | 32° |
| 2026-05-07 12:10 | 16.26875 | -16.29594 | 26758 ft | 514 kts | 32° |
| 2026-05-07 12:10 | 16.29746 | -16.27459 | 26909 ft | 511 kts | 32° |
| 2026-05-07 12:11 | 16.32638 | -16.25306 | 27109 ft | 509 kts | 32° |
| 2026-05-07 12:11 | 16.35521 | -16.23162 | 27319 ft | 506 kts | 32° |
| 2026-05-07 12:11 | 16.38387 | -16.21031 | 27564 ft | 504 kts | 32° |
| 2026-05-07 12:11 | 16.41241 | -16.18910 | 27807 ft | 503 kts | 32° |
| 2026-05-07 12:12 | 16.44061 | -16.16813 | 28044 ft | 502 kts | 32° |
| 2026-05-07 12:12 | 16.46912 | -16.14694 | 28299 ft | 501 kts | 32° |
| 2026-05-07 12:12 | 16.49763 | -16.12573 | 28371 ft | 505 kts | 31° |
| 2026-05-07 12:12 | 16.52586 | -16.10473 | 28668 ft | 503 kts | 31° |
| 2026-05-07 12:13 | 16.55431 | -16.08354 | 28968 ft | 501 kts | 31° |
| 2026-05-07 12:13 | 16.58266 | -16.06241 | 29276 ft | 500 kts | 31° |
| 2026-05-07 12:13 | 16.61094 | -16.04133 | 29581 ft | 499 kts | 31° |
| 2026-05-07 12:13 | 16.63924 | -16.02023 | 29890 ft | 499 kts | 31° |
| 2026-05-07 12:14 | 16.66753 | -15.99913 | 30170 ft | 498 kts | 31° |
| 2026-05-07 12:14 | 16.69569 | -15.97812 | 30446 ft | 497 kts | 31° |
| 2026-05-07 12:14 | 16.72384 | -15.95710 | 30710 ft | 496 kts | 31° |
| 2026-05-07 12:14 | 16.75157 | -15.93639 | 30978 ft | 495 kts | 31° |
| 2026-05-07 12:15 | 16.77961 | -15.91544 | 31246 ft | 493 kts | 31° |
| 2026-05-07 12:15 | 16.80751 | -15.89458 | 31524 ft | 492 kts | 31° |
| 2026-05-07 12:15 | 16.83543 | -15.87372 | 31794 ft | 490 kts | 30° |
| 2026-05-07 12:15 | 16.86279 | -15.85326 | 32078 ft | 489 kts | 30° |
| 2026-05-07 12:16 | 16.89041 | -15.83259 | 32356 ft | 487 kts | 30° |
| 2026-05-07 12:16 | 16.91787 | -15.81204 | 32644 ft | 485 kts | 30° |
| 2026-05-07 12:16 | 16.94533 | -15.79149 | 32924 ft | 483 kts | 30° |
| 2026-05-07 12:16 | 16.97262 | -15.77105 | 33197 ft | 481 kts | 30° |
| 2026-05-07 12:17 | 16.99951 | -15.75090 | 33506 ft | 479 kts | 30° |
| 2026-05-07 12:17 | 17.02661 | -15.73059 | 33792 ft | 477 kts | 30° |
| 2026-05-07 12:17 | 17.05371 | -15.71029 | 33878 ft | 480 kts | 30° |
| 2026-05-07 12:18 | 17.09928 | -15.67618 | 33890 ft | 488 kts | 30° |
| 2026-05-07 12:18 | 17.15503 | -15.63435 | 33894 ft | 497 kts | 30° |
| 2026-05-07 12:19 | 17.21164 | -15.59182 | 33891 ft | 504 kts | 30° |
| 2026-05-07 12:19 | 17.26915 | -15.54856 | 33889 ft | 511 kts | 30° |
| 2026-05-07 12:20 | 17.32690 | -15.50511 | 33885 ft | 517 kts | 31° |
| 2026-05-07 12:20 | 17.35613 | -15.48309 | 34059 ft | 514 kts | 31° |
| 2026-05-07 12:20 | 17.38508 | -15.46125 | 34319 ft | 510 kts | 31° |
| 2026-05-07 12:20 | 17.41379 | -15.43959 | 34563 ft | 506 kts | 31° |
| 2026-05-07 12:21 | 17.44224 | -15.41813 | 34816 ft | 502 kts | 30° |
| 2026-05-07 12:21 | 17.47050 | -15.39683 | 35076 ft | 498 kts | 30° |
| 2026-05-07 12:21 | 17.49849 | -15.37571 | 35359 ft | 494 kts | 30° |
| 2026-05-07 12:21 | 17.52589 | -15.35504 | 35595 ft | 490 kts | 30° |
| 2026-05-07 12:22 | 17.55352 | -15.33420 | 35774 ft | 488 kts | 30° |
| 2026-05-07 12:22 | 17.58111 | -15.31337 | 35883 ft | 488 kts | 30° |
| 2026-05-07 12:22 | 17.60886 | -15.29243 | 35887 ft | 491 kts | 30° |
| 2026-05-07 12:23 | 17.66463 | -15.25030 | 35892 ft | 496 kts | 30° |
| 2026-05-07 12:23 | 17.72065 | -15.20791 | 35893 ft | 501 kts | 30° |
| 2026-05-07 12:24 | 17.77753 | -15.16482 | 35890 ft | 506 kts | 30° |
| 2026-05-07 12:24 | 17.83505 | -15.12150 | 35889 ft | 509 kts | 28° |
| 2026-05-07 12:25 | 17.89665 | -15.08440 | 35902 ft | 515 kts | 19° |
| 2026-05-07 12:25 | 17.96154 | -15.05022 | 35962 ft | 531 kts | 20° |
| 2026-05-07 12:25 | 17.99436 | -15.03300 | 36156 ft | 534 kts | 20° |
| 2026-05-07 12:26 | 18.02775 | -15.01555 | 36427 ft | 536 kts | 19° |
| 2026-05-07 12:26 | 18.06132 | -14.99807 | 36669 ft | 538 kts | 19° |
| 2026-05-07 12:26 | 18.09496 | -14.98058 | 36920 ft | 539 kts | 19° |
| 2026-05-07 12:26 | 18.12854 | -14.96310 | 37174 ft | 540 kts | 19° |
| 2026-05-07 12:27 | 18.16230 | -14.94551 | 37432 ft | 541 kts | 19° |
| 2026-05-07 12:27 | 18.19601 | -14.92790 | 37684 ft | 541 kts | 19° |
| 2026-05-07 12:27 | 18.22929 | -14.91050 | 37953 ft | 541 kts | 19° |
| 2026-05-07 12:27 | 18.26300 | -14.89285 | 38222 ft | 541 kts | 19° |
| 2026-05-07 12:28 | 18.29651 | -14.87527 | 38447 ft | 536 kts | 19° |
| 2026-05-07 12:28 | 18.32974 | -14.85780 | 38685 ft | 530 kts | 19° |
| 2026-05-07 12:28 | 18.36265 | -14.84050 | 38810 ft | 528 kts | 19° |
| 2026-05-07 12:29 | 18.42870 | -14.80590 | 38897 ft | 530 kts | 19° |
| 2026-05-07 12:29 | 18.49499 | -14.77116 | 38903 ft | 532 kts | 19° |
| 2026-05-07 12:30 | 18.56094 | -14.73652 | 38905 ft | 533 kts | 19° |
| 2026-05-07 12:30 | 18.62737 | -14.70157 | 38899 ft | 534 kts | 19° |
| 2026-05-07 12:31 | 18.69402 | -14.66648 | 38905 ft | 534 kts | 19° |
| 2026-05-07 12:31 | 18.76057 | -14.63142 | 38898 ft | 534 kts | 19° |
| 2026-05-07 12:32 | 18.82659 | -14.59661 | 38891 ft | 534 kts | 20° |
| 2026-05-07 12:32 | 18.89301 | -14.56155 | 38896 ft | 533 kts | 20° |
| 2026-05-07 12:33 | 18.99251 | -14.50898 | 38889 ft | 532 kts | 20° |
| 2026-05-07 12:33 | 19.05868 | -14.47397 | 38887 ft | 531 kts | 20° |
| 2026-05-07 12:34 | 19.12443 | -14.43914 | 38889 ft | 531 kts | 19° |
| 2026-05-07 12:34 | 19.19067 | -14.40402 | 38885 ft | 531 kts | 19° |
| 2026-05-07 12:35 | 19.25636 | -14.36917 | 38888 ft | 530 kts | 19° |
| 2026-05-07 12:35 | 19.32251 | -14.33407 | 38885 ft | 530 kts | 19° |
| 2026-05-07 12:36 | 19.38862 | -14.29894 | 38896 ft | 530 kts | 19° |
| 2026-05-07 12:36 | 19.45422 | -14.26406 | 38887 ft | 530 kts | 19° |
| 2026-05-07 12:37 | 19.52025 | -14.22892 | 38892 ft | 530 kts | 19° |
| 2026-05-07 12:37 | 19.58590 | -14.19395 | 38891 ft | 531 kts | 19° |
| 2026-05-07 12:38 | 19.65204 | -14.15868 | 38888 ft | 531 kts | 19° |
| 2026-05-07 12:38 | 19.71827 | -14.12333 | 38890 ft | 532 kts | 19° |
| 2026-05-07 12:39 | 19.78417 | -14.08812 | 38892 ft | 533 kts | 18° |
| 2026-05-07 12:39 | 19.85077 | -14.05250 | 38894 ft | 534 kts | 19° |
| 2026-05-07 12:40 | 19.91682 | -14.01716 | 38896 ft | 534 kts | 19° |
| 2026-05-07 12:40 | 19.98345 | -13.98147 | 38894 ft | 535 kts | 19° |
| 2026-05-07 12:41 | 20.04956 | -13.94602 | 38895 ft | 535 kts | 19° |
| 2026-05-07 12:41 | 20.11617 | -13.91025 | 38888 ft | 536 kts | 19° |
| 2026-05-07 12:42 | 20.18277 | -13.87446 | 38894 ft | 536 kts | 19° |
| 2026-05-07 12:42 | 20.24904 | -13.83881 | 38893 ft | 536 kts | 19° |
| 2026-05-07 12:43 | 20.31574 | -13.80289 | 38892 ft | 536 kts | 19° |
| 2026-05-07 12:43 | 20.38231 | -13.76702 | 38891 ft | 536 kts | 19° |
| 2026-05-07 12:44 | 20.44886 | -13.73112 | 38881 ft | 535 kts | 19° |
| 2026-05-07 12:44 | 20.51512 | -13.69534 | 38879 ft | 535 kts | 19° |
| 2026-05-07 12:45 | 20.58161 | -13.65941 | 38888 ft | 535 kts | 19° |
| 2026-05-07 12:45 | 20.64780 | -13.62361 | 38888 ft | 535 kts | 19° |
| 2026-05-07 12:46 | 20.71439 | -13.58756 | 38891 ft | 534 kts | 19° |
| 2026-05-07 12:46 | 20.78037 | -13.55179 | 38889 ft | 534 kts | 19° |
| 2026-05-07 12:47 | 20.84678 | -13.51575 | 38894 ft | 534 kts | 19° |
| 2026-05-07 12:47 | 20.91304 | -13.47976 | 38891 ft | 533 kts | 20° |
| 2026-05-07 12:48 | 20.97884 | -13.44399 | 38890 ft | 532 kts | 20° |
| 2026-05-07 12:48 | 21.04492 | -13.40803 | 38894 ft | 532 kts | 20° |
| 2026-05-07 12:49 | 21.11064 | -13.37222 | 38886 ft | 531 kts | 20° |
| 2026-05-07 12:49 | 21.17618 | -13.33648 | 38887 ft | 529 kts | 20° |
| 2026-05-07 12:50 | 21.24190 | -13.30060 | 38893 ft | 528 kts | 20° |
| 2026-05-07 12:50 | 21.30745 | -13.26478 | 38891 ft | 527 kts | 20° |
| 2026-05-07 12:51 | 21.37244 | -13.22923 | 38894 ft | 526 kts | 20° |
| 2026-05-07 12:51 | 21.43768 | -13.19351 | 38888 ft | 525 kts | 21° |
| 2026-05-07 12:52 | 21.50270 | -13.15786 | 38893 ft | 524 kts | 21° |
| 2026-05-07 12:52 | 21.56728 | -13.12244 | 38892 ft | 523 kts | 21° |
| 2026-05-07 12:53 | 21.63209 | -13.08685 | 38894 ft | 522 kts | 21° |
| 2026-05-07 12:53 | 21.69673 | -13.05131 | 38896 ft | 521 kts | 21° |
| 2026-05-07 12:54 | 21.76089 | -13.01601 | 38900 ft | 520 kts | 21° |
| 2026-05-07 12:54 | 21.82529 | -12.98053 | 38902 ft | 518 kts | 21° |
| 2026-05-07 12:55 | 21.88929 | -12.94524 | 38901 ft | 516 kts | 21° |
| 2026-05-07 12:55 | 21.95334 | -12.90989 | 38899 ft | 515 kts | 21° |
| 2026-05-07 12:56 | 22.01659 | -12.87494 | 38896 ft | 512 kts | 21° |
| 2026-05-07 12:56 | 22.08001 | -12.83985 | 38895 ft | 510 kts | 21° |
| 2026-05-07 12:57 | 22.14310 | -12.80491 | 38898 ft | 508 kts | 21° |
| 2026-05-07 12:57 | 22.20562 | -12.77026 | 38889 ft | 506 kts | 21° |
| 2026-05-07 12:58 | 22.26824 | -12.73553 | 38905 ft | 505 kts | 22° |
| 2026-05-07 12:58 | 22.33045 | -12.70099 | 38896 ft | 504 kts | 22° |
| 2026-05-07 12:59 | 22.39291 | -12.66627 | 38902 ft | 503 kts | 22° |
| 2026-05-07 12:59 | 22.45483 | -12.63181 | 38899 ft | 502 kts | 22° |
| 2026-05-07 13:00 | 22.51704 | -12.59715 | 38900 ft | 502 kts | 22° |
| 2026-05-07 13:00 | 22.57914 | -12.56252 | 38908 ft | 502 kts | 22° |
| 2026-05-07 13:01 | 22.64123 | -12.52786 | 38907 ft | 502 kts | 22° |
| 2026-05-07 13:01 | 22.70341 | -12.49310 | 38913 ft | 502 kts | 22° |
| 2026-05-07 13:02 | 22.76528 | -12.45902 | 38902 ft | 499 kts | 20° |
| 2026-05-07 13:02 | 22.82823 | -12.43012 | 38897 ft | 484 kts | 14° |
| 2026-05-07 13:03 | 22.89122 | -12.40756 | 38910 ft | 478 kts | 10° |
| 2026-05-07 13:03 | 22.95572 | -12.38625 | 38923 ft | 489 kts | 11° |
| 2026-05-07 13:04 | 23.02110 | -12.36284 | 38927 ft | 498 kts | 13° |
| 2026-05-07 13:04 | 23.08646 | -12.33788 | 38928 ft | 501 kts | 14° |
| 2026-05-07 13:05 | 23.15182 | -12.31247 | 38916 ft | 501 kts | 14° |
| 2026-05-07 13:05 | 23.21738 | -12.28712 | 38907 ft | 499 kts | 13° |
| 2026-05-07 13:06 | 23.27179 | -12.26622 | 38911 ft | 496 kts | 13° |
| 2026-05-07 13:06 | 23.33685 | -12.24131 | 38910 ft | 493 kts | 13° |
| 2026-05-07 13:07 | 23.40152 | -12.21653 | 38915 ft | 491 kts | 13° |
| 2026-05-07 13:07 | 23.46556 | -12.19194 | 38916 ft | 489 kts | 13° |
| 2026-05-07 13:08 | 23.52966 | -12.16729 | 38917 ft | 488 kts | 13° |
| 2026-05-07 13:08 | 23.59378 | -12.14261 | 38927 ft | 487 kts | 13° |
| 2026-05-07 13:09 | 23.65752 | -12.11806 | 38921 ft | 488 kts | 13° |
| 2026-05-07 13:09 | 23.72163 | -12.09333 | 38926 ft | 489 kts | 13° |
| 2026-05-07 13:10 | 23.78581 | -12.06855 | 38917 ft | 489 kts | 13° |
| 2026-05-07 13:10 | 23.85016 | -12.04367 | 38922 ft | 490 kts | 13° |
| 2026-05-07 13:11 | 23.91420 | -12.01888 | 38921 ft | 490 kts | 14° |
| 2026-05-07 13:11 | 23.97867 | -11.99390 | 38921 ft | 490 kts | 14° |
| 2026-05-07 13:12 | 24.04267 | -11.96908 | 38920 ft | 490 kts | 14° |
| 2026-05-07 13:12 | 24.10709 | -11.94406 | 38916 ft | 490 kts | 14° |
| 2026-05-07 13:13 | 24.17113 | -11.91917 | 38914 ft | 489 kts | 14° |
| 2026-05-07 13:13 | 24.23539 | -11.89416 | 38915 ft | 488 kts | 14° |
| 2026-05-07 13:14 | 24.29904 | -11.86937 | 38916 ft | 487 kts | 14° |
| 2026-05-07 13:14 | 24.36311 | -11.84439 | 38913 ft | 487 kts | 14° |
| 2026-05-07 13:15 | 24.42692 | -11.81948 | 38915 ft | 486 kts | 14° |
| 2026-05-07 13:15 | 24.49030 | -11.79472 | 38914 ft | 486 kts | 14° |
| 2026-05-07 13:16 | 24.55408 | -11.76977 | 38914 ft | 485 kts | 14° |
| 2026-05-07 13:16 | 24.61778 | -11.74483 | 38913 ft | 485 kts | 14° |
| 2026-05-07 13:17 | 24.68107 | -11.72002 | 38910 ft | 485 kts | 14° |
| 2026-05-07 13:17 | 24.74491 | -11.69497 | 38911 ft | 485 kts | 14° |
| 2026-05-07 13:18 | 24.80857 | -11.66996 | 38913 ft | 486 kts | 14° |
| 2026-05-07 13:18 | 24.87199 | -11.64502 | 38915 ft | 486 kts | 14° |
| 2026-05-07 13:19 | 24.93577 | -11.61991 | 38917 ft | 486 kts | 14° |
| 2026-05-07 13:19 | 24.99953 | -11.59478 | 38915 ft | 486 kts | 14° |
| 2026-05-07 13:20 | 25.06287 | -11.56978 | 38916 ft | 486 kts | 14° |
| 2026-05-07 13:20 | 25.12656 | -11.54462 | 38920 ft | 486 kts | 14° |
| 2026-05-07 13:21 | 25.19025 | -11.51943 | 38919 ft | 485 kts | 14° |
| 2026-05-07 13:21 | 25.25393 | -11.49422 | 38921 ft | 485 kts | 14° |
| 2026-05-07 13:22 | 25.31725 | -11.46912 | 38917 ft | 485 kts | 14° |
| 2026-05-07 13:22 | 25.38045 | -11.44404 | 38916 ft | 484 kts | 14° |
| 2026-05-07 13:23 | 25.44403 | -11.41878 | 38909 ft | 484 kts | 14° |
| 2026-05-07 13:23 | 25.50741 | -11.39358 | 38915 ft | 483 kts | 14° |
| 2026-05-07 13:24 | 25.57040 | -11.36850 | 38920 ft | 483 kts | 14° |
| 2026-05-07 13:24 | 25.63370 | -11.34327 | 38921 ft | 483 kts | 14° |
| 2026-05-07 13:25 | 25.69661 | -11.31817 | 38922 ft | 483 kts | 14° |
| 2026-05-07 13:25 | 25.75988 | -11.29290 | 38922 ft | 483 kts | 14° |
| 2026-05-07 13:26 | 25.82295 | -11.26768 | 38927 ft | 483 kts | 14° |
| 2026-05-07 13:26 | 25.88626 | -11.24233 | 38926 ft | 483 kts | 14° |
| 2026-05-07 13:27 | 25.94952 | -11.21697 | 38929 ft | 482 kts | 14° |
| 2026-05-07 13:27 | 26.01239 | -11.19174 | 38929 ft | 482 kts | 14° |
| 2026-05-07 13:28 | 26.07524 | -11.16649 | 38926 ft | 482 kts | 14° |
| 2026-05-07 13:28 | 26.13835 | -11.14110 | 38927 ft | 482 kts | 14° |
| 2026-05-07 13:29 | 26.20158 | -11.11564 | 38923 ft | 482 kts | 14° |
| 2026-05-07 13:29 | 26.26479 | -11.09016 | 38923 ft | 482 kts | 14° |
| 2026-05-07 13:30 | 26.32754 | -11.06483 | 38923 ft | 482 kts | 14° |
| 2026-05-07 13:30 | 26.39067 | -11.03932 | 38922 ft | 482 kts | 14° |
| 2026-05-07 13:31 | 26.45346 | -11.01392 | 38910 ft | 482 kts | 14° |
| 2026-05-07 13:31 | 26.51649 | -10.98839 | 38915 ft | 481 kts | 14° |
| 2026-05-07 13:32 | 26.57957 | -10.96282 | 38914 ft | 481 kts | 14° |
| 2026-05-07 13:32 | 26.64226 | -10.93737 | 38899 ft | 481 kts | 14° |
| 2026-05-07 13:33 | 26.70525 | -10.91177 | 38912 ft | 481 kts | 14° |
| 2026-05-07 13:33 | 26.76823 | -10.88614 | 38904 ft | 481 kts | 14° |
| 2026-05-07 13:34 | 26.86223 | -10.84782 | 38901 ft | 480 kts | 14° |
| 2026-05-07 13:35 | 26.92507 | -10.82218 | 38902 ft | 480 kts | 14° |
| 2026-05-07 13:35 | 26.98791 | -10.79650 | 38895 ft | 480 kts | 14° |
| 2026-05-07 13:36 | 27.05029 | -10.77098 | 38895 ft | 480 kts | 14° |
| 2026-05-07 13:36 | 27.11316 | -10.74523 | 38898 ft | 479 kts | 15° |
| 2026-05-07 13:37 | 27.17552 | -10.71966 | 38892 ft | 479 kts | 15° |
| 2026-05-07 13:37 | 27.23840 | -10.69384 | 38896 ft | 479 kts | 15° |
| 2026-05-07 13:38 | 27.30110 | -10.66807 | 38895 ft | 480 kts | 15° |
| 2026-05-07 13:38 | 27.36386 | -10.64223 | 38893 ft | 480 kts | 15° |
| 2026-05-07 13:39 | 27.42631 | -10.61650 | 38892 ft | 480 kts | 15° |
| 2026-05-07 13:39 | 27.48907 | -10.59061 | 38898 ft | 480 kts | 15° |
| 2026-05-07 13:40 | 27.55160 | -10.56477 | 38896 ft | 480 kts | 15° |
| 2026-05-07 13:40 | 27.61442 | -10.53879 | 38894 ft | 480 kts | 15° |
| 2026-05-07 13:41 | 27.67718 | -10.51276 | 38894 ft | 480 kts | 15° |
| 2026-05-07 13:41 | 27.73895 | -10.48494 | 38901 ft | 481 kts | 18° |
| 2026-05-07 13:42 | 27.80078 | -10.45525 | 38899 ft | 482 kts | 18° |
| 2026-05-07 13:42 | 27.86259 | -10.42549 | 38899 ft | 482 kts | 18° |
| 2026-05-07 13:43 | 27.92405 | -10.39633 | 38897 ft | 481 kts | 18° |
| 2026-05-07 13:43 | 27.98605 | -10.36718 | 38897 ft | 481 kts | 17° |
| 2026-05-07 13:44 | 28.04799 | -10.33808 | 38901 ft | 481 kts | 18° |
| 2026-05-07 13:44 | 28.10956 | -10.30908 | 38900 ft | 481 kts | 18° |
| 2026-05-07 13:45 | 28.17159 | -10.27978 | 38899 ft | 481 kts | 18° |
| 2026-05-07 13:45 | 28.23316 | -10.25066 | 38896 ft | 482 kts | 18° |
| 2026-05-07 13:46 | 28.29489 | -10.22142 | 38899 ft | 482 kts | 18° |
| 2026-05-07 13:46 | 28.35681 | -10.19206 | 38911 ft | 481 kts | 18° |
| 2026-05-07 13:47 | 28.41885 | -10.16261 | 38907 ft | 481 kts | 18° |
| 2026-05-07 13:47 | 28.48015 | -10.13347 | 38920 ft | 480 kts | 18° |
| 2026-05-07 13:48 | 28.54201 | -10.10403 | 38917 ft | 481 kts | 18° |
| 2026-05-07 13:48 | 28.60392 | -10.07453 | 38915 ft | 482 kts | 18° |
| 2026-05-07 13:49 | 28.66558 | -10.04511 | 38926 ft | 482 kts | 18° |
| 2026-05-07 13:49 | 28.72752 | -10.01552 | 38922 ft | 483 kts | 18° |
| 2026-05-07 13:50 | 28.78965 | -9.98580 | 38923 ft | 483 kts | 18° |
| 2026-05-07 13:50 | 28.85137 | -9.95624 | 38917 ft | 484 kts | 18° |
| 2026-05-07 13:51 | 28.91362 | -9.92637 | 38922 ft | 484 kts | 18° |
| 2026-05-07 13:51 | 28.97581 | -9.89650 | 38919 ft | 484 kts | 18° |
| 2026-05-07 13:52 | 29.03753 | -9.86681 | 38921 ft | 484 kts | 18° |
| 2026-05-07 13:52 | 29.09970 | -9.83688 | 38914 ft | 484 kts | 18° |
| 2026-05-07 13:53 | 29.16150 | -9.80709 | 38916 ft | 484 kts | 18° |
| 2026-05-07 13:53 | 29.22375 | -9.77704 | 38922 ft | 484 kts | 18° |
| 2026-05-07 13:54 | 29.27544 | -9.75205 | 38925 ft | 485 kts | 18° |
| 2026-05-07 13:54 | 29.34780 | -9.71703 | 38929 ft | 485 kts | 18° |
| 2026-05-07 13:55 | 29.39996 | -9.69175 | 38928 ft | 485 kts | 18° |
| 2026-05-07 13:55 | 29.46199 | -9.66164 | 38933 ft | 486 kts | 18° |
| 2026-05-07 13:56 | 29.52436 | -9.63134 | 38927 ft | 486 kts | 18° |
| 2026-05-07 13:56 | 29.58638 | -9.60116 | 38931 ft | 486 kts | 18° |
| 2026-05-07 13:57 | 29.64871 | -9.57080 | 38919 ft | 486 kts | 18° |
| 2026-05-07 13:57 | 29.71102 | -9.54040 | 38920 ft | 486 kts | 18° |
| 2026-05-07 13:58 | 29.77343 | -9.50991 | 38927 ft | 486 kts | 18° |
| 2026-05-07 13:58 | 29.83545 | -9.47959 | 38919 ft | 486 kts | 19° |
| 2026-05-07 13:59 | 29.89782 | -9.44902 | 38917 ft | 486 kts | 19° |
| 2026-05-07 13:59 | 29.96018 | -9.41842 | 38909 ft | 486 kts | 19° |
| 2026-05-07 14:00 | 30.02221 | -9.38795 | 38899 ft | 487 kts | 19° |
| 2026-05-07 14:00 | 30.08472 | -9.35722 | 38896 ft | 487 kts | 19° |
| 2026-05-07 14:01 | 30.14721 | -9.32645 | 38893 ft | 487 kts | 19° |
| 2026-05-07 14:01 | 30.20937 | -9.29578 | 38884 ft | 488 kts | 19° |
| 2026-05-07 14:02 | 30.27198 | -9.26486 | 38874 ft | 488 kts | 19° |
| 2026-05-07 14:02 | 30.33425 | -9.23406 | 38887 ft | 488 kts | 19° |
| 2026-05-07 14:03 | 30.39680 | -9.20308 | 38881 ft | 488 kts | 19° |
| 2026-05-07 14:03 | 30.45942 | -9.17203 | 38876 ft | 489 kts | 19° |
| 2026-05-07 14:04 | 30.52165 | -9.14112 | 38880 ft | 489 kts | 19° |
| 2026-05-07 14:04 | 30.58418 | -9.11002 | 38883 ft | 489 kts | 19° |
| 2026-05-07 14:05 | 30.64688 | -9.07880 | 38892 ft | 489 kts | 19° |
| 2026-05-07 14:05 | 30.70966 | -9.04751 | 38890 ft | 490 kts | 19° |
| 2026-05-07 14:06 | 30.77193 | -9.01639 | 38889 ft | 490 kts | 19° |
| 2026-05-07 14:06 | 30.83461 | -8.98500 | 38895 ft | 489 kts | 19° |
| 2026-05-07 14:07 | 30.89714 | -8.95369 | 38905 ft | 489 kts | 19° |
| 2026-05-07 14:07 | 30.95978 | -8.92228 | 38905 ft | 489 kts | 19° |
| 2026-05-07 14:08 | 31.02204 | -8.89101 | 38915 ft | 489 kts | 19° |
| 2026-05-07 14:08 | 31.08464 | -8.85951 | 38915 ft | 488 kts | 19° |
| 2026-05-07 14:09 | 31.14667 | -8.82827 | 38909 ft | 488 kts | 19° |
| 2026-05-07 14:09 | 31.20919 | -8.79673 | 38910 ft | 488 kts | 19° |
| 2026-05-07 14:10 | 31.27131 | -8.76534 | 38922 ft | 488 kts | 19° |
| 2026-05-07 14:10 | 31.33369 | -8.73378 | 38922 ft | 488 kts | 19° |
| 2026-05-07 14:11 | 31.39607 | -8.70217 | 38920 ft | 488 kts | 19° |
| 2026-05-07 14:11 | 31.45854 | -8.67047 | 38921 ft | 488 kts | 19° |
| 2026-05-07 14:12 | 31.52054 | -8.63896 | 38917 ft | 488 kts | 19° |
| 2026-05-07 14:12 | 31.58291 | -8.60722 | 38920 ft | 488 kts | 19° |
| 2026-05-07 14:13 | 31.64550 | -8.57533 | 38916 ft | 488 kts | 19° |
| 2026-05-07 14:13 | 31.70759 | -8.54364 | 38918 ft | 488 kts | 19° |
| 2026-05-07 14:14 | 31.76990 | -8.51179 | 38923 ft | 488 kts | 19° |
| 2026-05-07 14:14 | 31.83187 | -8.48006 | 38913 ft | 488 kts | 19° |
| 2026-05-07 14:15 | 31.89425 | -8.44808 | 38918 ft | 488 kts | 19° |
| 2026-05-07 14:15 | 31.95667 | -8.41603 | 38920 ft | 488 kts | 19° |
| 2026-05-07 14:16 | 32.01858 | -8.38420 | 38921 ft | 488 kts | 19° |
| 2026-05-07 14:16 | 32.08096 | -8.35208 | 38924 ft | 488 kts | 19° |
| 2026-05-07 14:17 | 32.14319 | -8.31999 | 38925 ft | 488 kts | 19° |
| 2026-05-07 14:17 | 32.20548 | -8.28781 | 38927 ft | 488 kts | 19° |
| 2026-05-07 14:18 | 32.26744 | -8.25577 | 38930 ft | 488 kts | 19° |
| 2026-05-07 14:18 | 32.32982 | -8.22346 | 38931 ft | 488 kts | 19° |
| 2026-05-07 14:19 | 32.39208 | -8.19115 | 38924 ft | 489 kts | 19° |
| 2026-05-07 14:19 | 32.45438 | -8.15878 | 38931 ft | 489 kts | 19° |
| 2026-05-07 14:20 | 32.51634 | -8.12654 | 38936 ft | 489 kts | 19° |
| 2026-05-07 14:20 | 32.57873 | -8.09403 | 38937 ft | 489 kts | 19° |
| 2026-05-07 14:21 | 32.64081 | -8.06163 | 38926 ft | 489 kts | 19° |
| 2026-05-07 14:21 | 32.70333 | -8.02894 | 38937 ft | 489 kts | 19° |
| 2026-05-07 14:22 | 32.76545 | -7.99641 | 38927 ft | 489 kts | 19° |
| 2026-05-07 14:22 | 32.82745 | -7.96390 | 38937 ft | 489 kts | 19° |
| 2026-05-07 14:23 | 32.88982 | -7.93115 | 38931 ft | 490 kts | 19° |
| 2026-05-07 14:23 | 32.95240 | -7.89822 | 38936 ft | 490 kts | 19° |
| 2026-05-07 14:24 | 33.01447 | -7.86553 | 38943 ft | 490 kts | 19° |
| 2026-05-07 14:24 | 33.07700 | -7.83254 | 38941 ft | 490 kts | 19° |
| 2026-05-07 14:25 | 33.13951 | -7.79950 | 38938 ft | 490 kts | 19° |
| 2026-05-07 14:25 | 33.20157 | -7.76665 | 38942 ft | 490 kts | 19° |
| 2026-05-07 14:26 | 33.26396 | -7.73358 | 38946 ft | 490 kts | 19° |
| 2026-05-07 14:26 | 33.32612 | -7.70057 | 38945 ft | 490 kts | 19° |
| 2026-05-07 14:27 | 33.38858 | -7.66736 | 38942 ft | 490 kts | 19° |
| 2026-05-07 14:27 | 33.45067 | -7.63429 | 38946 ft | 490 kts | 19° |
| 2026-05-07 14:28 | 33.51317 | -7.60095 | 38945 ft | 490 kts | 19° |
| 2026-05-07 14:28 | 33.57527 | -7.56779 | 38944 ft | 491 kts | 19° |
| 2026-05-07 14:29 | 33.63777 | -7.53434 | 38943 ft | 491 kts | 19° |
| 2026-05-07 14:29 | 33.70018 | -7.50089 | 38953 ft | 490 kts | 19° |
| 2026-05-07 14:30 | 33.76229 | -7.46754 | 38945 ft | 490 kts | 19° |
| 2026-05-07 14:30 | 33.82475 | -7.43395 | 38953 ft | 490 kts | 19° |
| 2026-05-07 14:31 | 33.88669 | -7.40059 | 38957 ft | 490 kts | 18° |
| 2026-05-07 14:31 | 33.94907 | -7.36694 | 38965 ft | 490 kts | 18° |
| 2026-05-07 14:32 | 34.01147 | -7.33323 | 38963 ft | 490 kts | 18° |
| 2026-05-07 14:32 | 34.07357 | -7.29962 | 38964 ft | 491 kts | 18° |
| 2026-05-07 14:33 | 34.13564 | -7.26598 | 38970 ft | 491 kts | 18° |
| 2026-05-07 14:33 | 34.19799 | -7.23212 | 38970 ft | 491 kts | 18° |
| 2026-05-07 14:34 | 34.26051 | -7.19812 | 38968 ft | 491 kts | 18° |
| 2026-05-07 14:34 | 34.32289 | -7.16414 | 38967 ft | 491 kts | 18° |
| 2026-05-07 14:35 | 34.38490 | -7.13031 | 38962 ft | 491 kts | 18° |
| 2026-05-07 14:35 | 34.44727 | -7.09623 | 38960 ft | 491 kts | 18° |
| 2026-05-07 14:36 | 34.50923 | -7.06232 | 38965 ft | 490 kts | 18° |
| 2026-05-07 14:36 | 34.57154 | -7.02816 | 38964 ft | 490 kts | 18° |
| 2026-05-07 14:37 | 34.63374 | -6.99400 | 38962 ft | 490 kts | 18° |
| 2026-05-07 14:37 | 34.72678 | -6.94280 | 38961 ft | 490 kts | 18° |
| 2026-05-07 14:38 | 34.78898 | -6.90850 | 38959 ft | 491 kts | 18° |
| 2026-05-07 14:38 | 34.85094 | -6.87427 | 38963 ft | 491 kts | 18° |
| 2026-05-07 14:39 | 34.91320 | -6.83982 | 38959 ft | 490 kts | 18° |
| 2026-05-07 14:39 | 34.97539 | -6.80534 | 38961 ft | 490 kts | 18° |
| 2026-05-07 14:40 | 35.03720 | -6.77103 | 38959 ft | 490 kts | 18° |
| 2026-05-07 14:40 | 35.09935 | -6.73646 | 38955 ft | 490 kts | 18° |
| 2026-05-07 14:41 | 35.16111 | -6.70207 | 38960 ft | 490 kts | 18° |
| 2026-05-07 14:41 | 35.22314 | -6.66745 | 38962 ft | 490 kts | 18° |
| 2026-05-07 14:42 | 35.28497 | -6.63290 | 38958 ft | 490 kts | 18° |
| 2026-05-07 14:42 | 35.33661 | -6.60400 | 38952 ft | 490 kts | 18° |
| 2026-05-07 14:43 | 35.39867 | -6.56921 | 38960 ft | 490 kts | 18° |
| 2026-05-07 14:43 | 35.46076 | -6.53434 | 38955 ft | 490 kts | 18° |
| 2026-05-07 14:44 | 35.52253 | -6.49960 | 38951 ft | 490 kts | 18° |
| 2026-05-07 14:44 | 35.58468 | -6.46457 | 38954 ft | 490 kts | 18° |
| 2026-05-07 14:45 | 35.64640 | -6.42973 | 38954 ft | 491 kts | 18° |
| 2026-05-07 14:45 | 35.70863 | -6.39456 | 39085 ft | 494 kts | 18° |
| 2026-05-07 14:46 | 35.73991 | -6.37684 | 39333 ft | 494 kts | 18° |
| 2026-05-07 14:46 | 35.77103 | -6.35918 | 39649 ft | 492 kts | 18° |
| 2026-05-07 14:46 | 35.80207 | -6.34156 | 39983 ft | 489 kts | 18° |
| 2026-05-07 14:46 | 35.83324 | -6.32397 | 39928 ft | 491 kts | 17° |
| 2026-05-07 14:47 | 35.89558 | -6.29303 | 39938 ft | 480 kts | 13° |
| 2026-05-07 14:47 | 35.95824 | -6.26613 | 39942 ft | 475 kts | 12° |
| 2026-05-07 14:48 | 35.99975 | -6.24863 | 39926 ft | 470 kts | 12° |
| 2026-05-07 14:48 | 36.06103 | -6.22201 | 39927 ft | 463 kts | 12° |
| 2026-05-07 14:49 | 36.12087 | -6.19526 | 39928 ft | 456 kts | 12° |
| 2026-05-07 14:49 | 36.18012 | -6.16850 | 39930 ft | 449 kts | 12° |
| 2026-05-07 14:50 | 36.23806 | -6.14230 | 39929 ft | 442 kts | 12° |
| 2026-05-07 14:50 | 36.29624 | -6.11611 | 39952 ft | 450 kts | 12° |
| 2026-05-07 14:51 | 36.35564 | -6.08941 | 39950 ft | 462 kts | 12° |
| 2026-05-07 14:51 | 36.41684 | -6.06178 | 39952 ft | 473 kts | 13° |
| 2026-05-07 14:52 | 36.47946 | -6.03338 | 39940 ft | 483 kts | 13° |
| 2026-05-07 14:52 | 36.54249 | -6.00466 | 39929 ft | 485 kts | 13° |
| 2026-05-07 14:53 | 36.60598 | -5.97567 | 39921 ft | 486 kts | 13° |
| 2026-05-07 14:53 | 36.66951 | -5.94666 | 39906 ft | 484 kts | 13° |
| 2026-05-07 14:54 | 36.73269 | -5.91779 | 39902 ft | 482 kts | 13° |
| 2026-05-07 14:54 | 36.79523 | -5.88918 | 39911 ft | 480 kts | 13° |
| 2026-05-07 14:55 | 36.85791 | -5.86047 | 39907 ft | 478 kts | 13° |
| 2026-05-07 14:55 | 36.92041 | -5.83178 | 39914 ft | 477 kts | 13° |
| 2026-05-07 14:56 | 36.98243 | -5.80326 | 39904 ft | 477 kts | 13° |
| 2026-05-07 14:56 | 37.04484 | -5.77453 | 39895 ft | 477 kts | 13° |
| 2026-05-07 14:57 | 37.10717 | -5.74577 | 39891 ft | 478 kts | 13° |
| 2026-05-07 14:57 | 37.16970 | -5.71687 | 39895 ft | 479 kts | 13° |
| 2026-05-07 14:58 | 37.23198 | -5.68802 | 39890 ft | 480 kts | 13° |
| 2026-05-07 14:58 | 37.29491 | -5.65882 | 39893 ft | 481 kts | 13° |
| 2026-05-07 14:59 | 37.35778 | -5.62959 | 39891 ft | 482 kts | 13° |
| 2026-05-07 14:59 | 37.42034 | -5.60045 | 39889 ft | 482 kts | 13° |
| 2026-05-07 15:00 | 37.48342 | -5.57102 | 39889 ft | 482 kts | 13° |
| 2026-05-07 15:00 | 37.54641 | -5.54159 | 39892 ft | 482 kts | 13° |
| 2026-05-07 15:01 | 37.60900 | -5.51229 | 39883 ft | 482 kts | 14° |
| 2026-05-07 15:01 | 37.67195 | -5.48276 | 39881 ft | 481 kts | 14° |
| 2026-05-07 15:02 | 37.73438 | -5.45342 | 39883 ft | 481 kts | 14° |
| 2026-05-07 15:02 | 37.79713 | -5.42389 | 39882 ft | 481 kts | 14° |
| 2026-05-07 15:03 | 37.85994 | -5.39428 | 39879 ft | 480 kts | 14° |
| 2026-05-07 15:03 | 37.92229 | -5.36482 | 39876 ft | 480 kts | 14° |
| 2026-05-07 15:04 | 37.98498 | -5.33514 | 39882 ft | 480 kts | 14° |
| 2026-05-07 15:04 | 38.04759 | -5.30547 | 39885 ft | 480 kts | 14° |
| 2026-05-07 15:05 | 38.10999 | -5.27584 | 39884 ft | 481 kts | 14° |
| 2026-05-07 15:05 | 38.17272 | -5.24599 | 39876 ft | 481 kts | 14° |
| 2026-05-07 15:06 | 38.23564 | -5.21598 | 39874 ft | 482 kts | 14° |
| 2026-05-07 15:06 | 38.29810 | -5.18614 | 39867 ft | 482 kts | 14° |
| 2026-05-07 15:07 | 38.36094 | -5.15606 | 39883 ft | 482 kts | 14° |
| 2026-05-07 15:07 | 38.42377 | -5.12595 | 39865 ft | 482 kts | 14° |
| 2026-05-07 15:08 | 38.48665 | -5.09574 | 39870 ft | 482 kts | 14° |
| 2026-05-07 15:08 | 38.54910 | -5.06569 | 39869 ft | 483 kts | 14° |
| 2026-05-07 15:09 | 38.61222 | -5.03526 | 39873 ft | 484 kts | 14° |
| 2026-05-07 15:09 | 38.67535 | -5.00478 | 39870 ft | 485 kts | 14° |
| 2026-05-07 15:10 | 38.73849 | -4.97421 | 39869 ft | 486 kts | 14° |
| 2026-05-07 15:10 | 38.80146 | -4.94368 | 39866 ft | 486 kts | 14° |
| 2026-05-07 15:11 | 38.86485 | -4.91288 | 39883 ft | 486 kts | 14° |
| 2026-05-07 15:11 | 38.92817 | -4.88206 | 39878 ft | 486 kts | 14° |
| 2026-05-07 15:12 | 38.99153 | -4.85116 | 39879 ft | 486 kts | 14° |
| 2026-05-07 15:12 | 39.05412 | -4.81929 | 39878 ft | 487 kts | 17° |
| 2026-05-07 15:13 | 39.11661 | -4.78518 | 39880 ft | 487 kts | 17° |
| 2026-05-07 15:13 | 39.17845 | -4.75097 | 39882 ft | 485 kts | 17° |
| 2026-05-07 15:14 | 39.24061 | -4.71694 | 39894 ft | 483 kts | 17° |
| 2026-05-07 15:14 | 39.30233 | -4.68344 | 39875 ft | 482 kts | 17° |
| 2026-05-07 15:15 | 39.36418 | -4.64986 | 39896 ft | 481 kts | 17° |
| 2026-05-07 15:15 | 39.42607 | -4.61619 | 39882 ft | 480 kts | 18° |
| 2026-05-07 15:16 | 39.48763 | -4.58260 | 39892 ft | 480 kts | 18° |
| 2026-05-07 15:16 | 39.54873 | -4.54918 | 39883 ft | 479 kts | 18° |
| 2026-05-07 15:17 | 39.61020 | -4.51548 | 39900 ft | 479 kts | 18° |
| 2026-05-07 15:17 | 39.67173 | -4.48169 | 39887 ft | 479 kts | 18° |
| 2026-05-07 15:18 | 39.73320 | -4.44787 | 39894 ft | 479 kts | 18° |
| 2026-05-07 15:18 | 39.79432 | -4.41417 | 39889 ft | 479 kts | 19° |
| 2026-05-07 15:19 | 39.85591 | -4.38015 | 39892 ft | 480 kts | 19° |
| 2026-05-07 15:19 | 39.91714 | -4.34626 | 39892 ft | 480 kts | 19° |
| 2026-05-07 15:20 | 39.97869 | -4.31212 | 39891 ft | 480 kts | 19° |
| 2026-05-07 15:20 | 40.04036 | -4.27786 | 39896 ft | 480 kts | 19° |
| 2026-05-07 15:21 | 40.10151 | -4.24380 | 39896 ft | 480 kts | 19° |
| 2026-05-07 15:21 | 40.16324 | -4.20936 | 39898 ft | 481 kts | 19° |
| 2026-05-07 15:22 | 40.22451 | -4.17511 | 39901 ft | 481 kts | 20° |
| 2026-05-07 15:22 | 40.28610 | -4.14061 | 39909 ft | 481 kts | 20° |
| 2026-05-07 15:23 | 40.34765 | -4.10608 | 39917 ft | 481 kts | 20° |
| 2026-05-07 15:23 | 40.40882 | -4.07168 | 39919 ft | 481 kts | 20° |
| 2026-05-07 15:24 | 40.47040 | -4.03700 | 39919 ft | 481 kts | 20° |
| 2026-05-07 15:24 | 40.53218 | -4.00223 | 39944 ft | 482 kts | 20° |
| 2026-05-07 15:25 | 40.59347 | -3.96759 | 39955 ft | 483 kts | 20° |
| 2026-05-07 15:25 | 40.65519 | -3.93256 | 39963 ft | 484 kts | 20° |
| 2026-05-07 15:26 | 40.71718 | -3.89730 | 39973 ft | 484 kts | 20° |
| 2026-05-07 15:26 | 40.77877 | -3.86223 | 39972 ft | 486 kts | 20° |
| 2026-05-07 15:27 | 40.84118 | -3.82664 | 39965 ft | 487 kts | 20° |
| 2026-05-07 15:27 | 40.90352 | -3.79101 | 39948 ft | 487 kts | 20° |
| 2026-05-07 15:28 | 40.96537 | -3.75558 | 39951 ft | 487 kts | 20° |
| 2026-05-07 15:28 | 41.02791 | -3.71971 | 39933 ft | 488 kts | 21° |
| 2026-05-07 15:29 | 41.09018 | -3.68386 | 39936 ft | 488 kts | 21° |
| 2026-05-07 15:29 | 41.15219 | -3.64803 | 39933 ft | 488 kts | 21° |
| 2026-05-07 15:30 | 41.21460 | -3.61201 | 39922 ft | 489 kts | 21° |
| 2026-05-07 15:30 | 41.26659 | -3.58197 | 39921 ft | 489 kts | 21° |
| 2026-05-07 15:31 | 41.33923 | -3.53989 | 39916 ft | 489 kts | 21° |
| 2026-05-07 15:31 | 41.39148 | -3.50955 | 39911 ft | 489 kts | 21° |
| 2026-05-07 15:32 | 41.45344 | -3.47349 | 39910 ft | 489 kts | 21° |
| 2026-05-07 15:32 | 41.51575 | -3.43716 | 39904 ft | 489 kts | 21° |
| 2026-05-07 15:33 | 41.57811 | -3.40070 | 39905 ft | 489 kts | 21° |
| 2026-05-07 15:33 | 41.64055 | -3.36414 | 39904 ft | 489 kts | 21° |
| 2026-05-07 15:34 | 41.70303 | -3.32747 | 39888 ft | 489 kts | 21° |
| 2026-05-07 15:34 | 41.76539 | -3.29078 | 39903 ft | 489 kts | 21° |
| 2026-05-07 15:35 | 41.82740 | -3.25423 | 39908 ft | 490 kts | 21° |
| 2026-05-07 15:35 | 41.88999 | -3.21726 | 39893 ft | 490 kts | 21° |
| 2026-05-07 15:36 | 41.95208 | -3.18050 | 39904 ft | 490 kts | 21° |
| 2026-05-07 15:36 | 42.01475 | -3.14332 | 39904 ft | 491 kts | 21° |
| 2026-05-07 15:37 | 42.07689 | -3.10638 | 39908 ft | 491 kts | 22° |
| 2026-05-07 15:37 | 42.13961 | -3.06900 | 39915 ft | 491 kts | 22° |
| 2026-05-07 15:38 | 42.20175 | -3.03189 | 39911 ft | 491 kts | 22° |
| 2026-05-07 15:38 | 42.26436 | -2.99442 | 39905 ft | 491 kts | 22° |
| 2026-05-07 15:39 | 42.32706 | -2.95682 | 39899 ft | 492 kts | 22° |
| 2026-05-07 15:39 | 42.38923 | -2.91943 | 39899 ft | 492 kts | 22° |
| 2026-05-07 15:40 | 42.45144 | -2.88063 | 39884 ft | 484 kts | 26° |
| 2026-05-07 15:40 | 42.50696 | -2.83066 | 39910 ft | 484 kts | 36° |
| 2026-05-07 15:41 | 42.56090 | -2.77499 | 39888 ft | 485 kts | 35° |
| 2026-05-07 15:41 | 42.61490 | -2.72057 | 39884 ft | 481 kts | 34° |
| 2026-05-07 15:42 | 42.66831 | -2.66702 | 39879 ft | 476 kts | 34° |
| 2026-05-07 15:42 | 42.72151 | -2.61316 | 39882 ft | 474 kts | 36° |
| 2026-05-07 15:43 | 42.77405 | -2.56003 | 39877 ft | 470 kts | 32° |
| 2026-05-07 15:43 | 42.83162 | -2.51755 | 39847 ft | 474 kts | 24° |
| 2026-05-07 15:44 | 42.89063 | -2.47736 | 39879 ft | 472 kts | 25° |
| 2026-05-07 15:44 | 42.94888 | -2.43695 | 39887 ft | 472 kts | 25° |
| 2026-05-07 15:45 | 43.00735 | -2.39578 | 39893 ft | 472 kts | 25° |
| 2026-05-07 15:45 | 43.06571 | -2.35453 | 39889 ft | 471 kts | 25° |
| 2026-05-07 15:46 | 43.15286 | -2.29292 | 39896 ft | 471 kts | 25° |
| 2026-05-07 15:47 | 43.21117 | -2.25169 | 39883 ft | 471 kts | 25° |
| 2026-05-07 15:47 | 43.26936 | -2.21044 | 39894 ft | 470 kts | 25° |
| 2026-05-07 15:48 | 43.32717 | -2.16939 | 39895 ft | 470 kts | 25° |
| 2026-05-07 15:48 | 43.38537 | -2.12795 | 39900 ft | 470 kts | 25° |
| 2026-05-07 15:49 | 43.44303 | -2.08681 | 39902 ft | 469 kts | 25° |
| 2026-05-07 15:49 | 43.50107 | -2.04531 | 39903 ft | 469 kts | 25° |
| 2026-05-07 15:50 | 43.55904 | -2.00377 | 39902 ft | 469 kts | 25° |
| 2026-05-07 15:50 | 43.61716 | -1.96203 | 39901 ft | 469 kts | 25° |
| 2026-05-07 15:51 | 43.67482 | -1.92053 | 39901 ft | 469 kts | 25° |
| 2026-05-07 15:51 | 43.73278 | -1.87873 | 39901 ft | 469 kts | 25° |
| 2026-05-07 15:52 | 43.79064 | -1.83691 | 39906 ft | 469 kts | 26° |
| 2026-05-07 15:52 | 43.84808 | -1.79529 | 39907 ft | 469 kts | 26° |
| 2026-05-07 15:53 | 43.90601 | -1.75323 | 39912 ft | 469 kts | 26° |
| 2026-05-07 15:53 | 43.96348 | -1.71141 | 39909 ft | 469 kts | 26° |
| 2026-05-07 15:54 | 44.02119 | -1.66932 | 39918 ft | 468 kts | 26° |
| 2026-05-07 15:54 | 44.07887 | -1.62717 | 39920 ft | 468 kts | 26° |
| 2026-05-07 15:55 | 44.13675 | -1.58477 | 39917 ft | 468 kts | 26° |
| 2026-05-07 15:55 | 44.19403 | -1.54272 | 39920 ft | 468 kts | 26° |
| 2026-05-07 15:56 | 44.25179 | -1.50022 | 39914 ft | 468 kts | 26° |
| 2026-05-07 15:56 | 44.30949 | -1.45767 | 39918 ft | 469 kts | 26° |
| 2026-05-07 15:57 | 44.36715 | -1.41506 | 39913 ft | 469 kts | 26° |
| 2026-05-07 15:57 | 44.42463 | -1.37248 | 39917 ft | 469 kts | 26° |
| 2026-05-07 15:58 | 44.48241 | -1.32959 | 39917 ft | 469 kts | 26° |
| 2026-05-07 15:58 | 44.53982 | -1.28687 | 39917 ft | 470 kts | 26° |
| 2026-05-07 15:59 | 44.59758 | -1.24379 | 39917 ft | 470 kts | 26° |
| 2026-05-07 15:59 | 44.65542 | -1.20056 | 39918 ft | 470 kts | 26° |
| 2026-05-07 16:00 | 44.71286 | -1.15753 | 39921 ft | 471 kts | 26° |
| 2026-05-07 16:00 | 44.77076 | -1.11405 | 39935 ft | 471 kts | 26° |
| 2026-05-07 16:01 | 44.82857 | -1.07054 | 39943 ft | 471 kts | 26° |
| 2026-05-07 16:01 | 44.88652 | -1.02683 | 39949 ft | 471 kts | 26° |
| 2026-05-07 16:02 | 44.94408 | -0.98331 | 39948 ft | 472 kts | 26° |
| 2026-05-07 16:02 | 45.00196 | -0.93945 | 39954 ft | 472 kts | 26° |
| 2026-05-07 16:03 | 45.05994 | -0.89542 | 39938 ft | 473 kts | 26° |
| 2026-05-07 16:03 | 45.11790 | -0.85130 | 39945 ft | 473 kts | 26° |
| 2026-05-07 16:04 | 45.17560 | -0.80727 | 39967 ft | 473 kts | 26° |
| 2026-05-07 16:04 | 45.23357 | -0.76292 | 39951 ft | 473 kts | 26° |
| 2026-05-07 16:05 | 45.29162 | -0.71842 | 39948 ft | 474 kts | 27° |
| 2026-05-07 16:05 | 45.34937 | -0.67405 | 39952 ft | 474 kts | 27° |
| 2026-05-07 16:06 | 45.40742 | -0.62933 | 39962 ft | 474 kts | 27° |
| 2026-05-07 16:06 | 45.46546 | -0.58453 | 39961 ft | 474 kts | 27° |
| 2026-05-07 16:07 | 45.52352 | -0.53960 | 39963 ft | 474 kts | 27° |
| 2026-05-07 16:07 | 45.58120 | -0.49485 | 39966 ft | 475 kts | 27° |
| 2026-05-07 16:08 | 45.63937 | -0.44962 | 39969 ft | 475 kts | 27° |
| 2026-05-07 16:08 | 45.69746 | -0.40434 | 39969 ft | 475 kts | 27° |
| 2026-05-07 16:09 | 45.75522 | -0.35921 | 39943 ft | 475 kts | 27° |
| 2026-05-07 16:09 | 45.81325 | -0.31376 | 39944 ft | 475 kts | 27° |
| 2026-05-07 16:10 | 45.87132 | -0.26818 | 39950 ft | 475 kts | 27° |
| 2026-05-07 16:10 | 45.92896 | -0.22282 | 39952 ft | 475 kts | 27° |
| 2026-05-07 16:11 | 45.98689 | -0.17713 | 39959 ft | 475 kts | 27° |
| 2026-05-07 16:11 | 46.04500 | -0.13118 | 39963 ft | 475 kts | 27° |
| 2026-05-07 16:12 | 46.10266 | -0.08548 | 39959 ft | 475 kts | 27° |
| 2026-05-07 16:12 | 46.16060 | -0.03945 | 39975 ft | 474 kts | 27° |
| 2026-05-07 16:13 | 46.21810 | 0.00636 | 39966 ft | 474 kts | 27° |
| 2026-05-07 16:13 | 46.27588 | 0.05248 | 39972 ft | 474 kts | 27° |
| 2026-05-07 16:14 | 46.33366 | 0.09873 | 39971 ft | 474 kts | 27° |
| 2026-05-07 16:14 | 46.39111 | 0.14483 | 39971 ft | 474 kts | 27° |
| 2026-05-07 16:15 | 46.44878 | 0.19121 | 39969 ft | 474 kts | 27° |
| 2026-05-07 16:15 | 46.50640 | 0.23767 | 39968 ft | 473 kts | 27° |
| 2026-05-07 16:16 | 46.56463 | 0.28365 | 39992 ft | 480 kts | 24° |
| 2026-05-07 16:16 | 46.62664 | 0.32142 | 39975 ft | 489 kts | 16° |
| 2026-05-07 16:16 | 46.65957 | 0.33313 | 39954 ft | 486 kts | 2° |
| 2026-05-07 16:17 | 46.69322 | 0.33485 | 39983 ft | 481 kts | 358° |
| 2026-05-07 16:17 | 46.74943 | 0.33358 | 39988 ft | 490 kts | 355° |
| 2026-05-07 16:18 | 46.82957 | 0.32898 | 39991 ft | 499 kts | 355° |
| 2026-05-07 16:18 | 46.88746 | 0.32567 | 39977 ft | 492 kts | 355° |
| 2026-05-07 16:19 | 46.95543 | 0.32199 | 39988 ft | 487 kts | 355° |
| 2026-05-07 16:19 | 47.02263 | 0.31832 | 39990 ft | 486 kts | 355° |
| 2026-05-07 16:20 | 47.09024 | 0.31456 | 39993 ft | 486 kts | 355° |
| 2026-05-07 16:20 | 47.12460 | 0.31262 | 39782 ft | 491 kts | 355° |
| 2026-05-07 16:20 | 47.15873 | 0.31068 | 39088 ft | 497 kts | 355° |
| 2026-05-07 16:20 | 47.19359 | 0.30871 | 38372 ft | 492 kts | 355° |
| 2026-05-07 16:21 | 47.22746 | 0.30683 | 37553 ft | 482 kts | 355° |
| 2026-05-07 16:21 | 47.26061 | 0.30501 | 36848 ft | 472 kts | 355° |
| 2026-05-07 16:21 | 47.29327 | 0.30320 | 36178 ft | 465 kts | 355° |
| 2026-05-07 16:21 | 47.32539 | 0.30141 | 35738 ft | 459 kts | 355° |
| 2026-05-07 16:22 | 47.35672 | 0.29965 | 35223 ft | 451 kts | 355° |
| 2026-05-07 16:22 | 47.38784 | 0.29789 | 34747 ft | 443 kts | 355° |
| 2026-05-07 16:22 | 47.41853 | 0.29615 | 34281 ft | 438 kts | 355° |
| 2026-05-07 16:22 | 47.44888 | 0.29443 | 33753 ft | 430 kts | 355° |
| 2026-05-07 16:23 | 47.47853 | 0.29274 | 33221 ft | 423 kts | 355° |
| 2026-05-07 16:23 | 47.50788 | 0.29107 | 32774 ft | 421 kts | 355° |
| 2026-05-07 16:23 | 47.53740 | 0.28936 | 32313 ft | 429 kts | 355° |
| 2026-05-07 16:23 | 47.56766 | 0.28758 | 31840 ft | 438 kts | 356° |
| 2026-05-07 16:24 | 47.59768 | 0.28584 | 31353 ft | 433 kts | 356° |
| 2026-05-07 16:24 | 47.62735 | 0.28417 | 30857 ft | 420 kts | 356° |
| 2026-05-07 16:24 | 47.65622 | 0.28258 | 30401 ft | 408 kts | 356° |
| 2026-05-07 16:24 | 47.68412 | 0.28103 | 29944 ft | 396 kts | 356° |
| 2026-05-07 16:25 | 47.71138 | 0.27948 | 29455 ft | 387 kts | 356° |
| 2026-05-07 16:25 | 47.73815 | 0.27794 | 29031 ft | 384 kts | 356° |
| 2026-05-07 16:25 | 47.76507 | 0.27636 | 28594 ft | 391 kts | 356° |
| 2026-05-07 16:25 | 47.79297 | 0.27583 | 28130 ft | 410 kts | 5° |
| 2026-05-07 16:26 | 47.82049 | 0.28770 | 27752 ft | 421 kts | 25° |
| 2026-05-07 16:26 | 47.84590 | 0.30954 | 27432 ft | 418 kts | 32° |
| 2026-05-07 16:26 | 47.86957 | 0.33428 | 26997 ft | 416 kts | 37° |
| 2026-05-07 16:26 | 47.89122 | 0.36231 | 26628 ft | 409 kts | 43° |
| 2026-05-07 16:27 | 47.91128 | 0.39269 | 26175 ft | 410 kts | 46° |
| 2026-05-07 16:27 | 47.93069 | 0.42378 | 25820 ft | 409 kts | 47° |
| 2026-05-07 16:27 | 47.94981 | 0.45514 | 25576 ft | 406 kts | 47° |
| 2026-05-07 16:27 | 47.96843 | 0.48603 | 25309 ft | 404 kts | 47° |
| 2026-05-07 16:28 | 47.98714 | 0.51717 | 24957 ft | 400 kts | 47° |
| 2026-05-07 16:28 | 48.00571 | 0.54809 | 24539 ft | 398 kts | 47° |
| 2026-05-07 16:28 | 48.02413 | 0.57873 | 24109 ft | 395 kts | 47° |
| 2026-05-07 16:28 | 48.04247 | 0.60918 | 23697 ft | 392 kts | 47° |
| 2026-05-07 16:29 | 48.06071 | 0.63946 | 23224 ft | 390 kts | 47° |
| 2026-05-07 16:29 | 48.07859 | 0.66915 | 22758 ft | 388 kts | 47° |
| 2026-05-07 16:29 | 48.09671 | 0.69924 | 22325 ft | 384 kts | 47° |
| 2026-05-07 16:29 | 48.11447 | 0.72879 | 21892 ft | 381 kts | 47° |
| 2026-05-07 16:30 | 48.13215 | 0.75825 | 21464 ft | 378 kts | 47° |
| 2026-05-07 16:30 | 48.14968 | 0.78750 | 21065 ft | 376 kts | 47° |
| 2026-05-07 16:30 | 48.16712 | 0.81660 | 20641 ft | 373 kts | 47° |
| 2026-05-07 16:30 | 48.18439 | 0.84545 | 20230 ft | 370 kts | 47° |
| 2026-05-07 16:31 | 48.20156 | 0.87416 | 19820 ft | 368 kts | 47° |
| 2026-05-07 16:31 | 48.21860 | 0.90270 | 19408 ft | 366 kts | 47° |
| 2026-05-07 16:31 | 48.23552 | 0.93107 | 19000 ft | 364 kts | 47° |
| 2026-05-07 16:31 | 48.25185 | 0.95847 | 18609 ft | 363 kts | 47° |
| 2026-05-07 16:32 | 48.26845 | 0.98637 | 18191 ft | 361 kts | 47° |
| 2026-05-07 16:32 | 48.28512 | 1.01442 | 17738 ft | 359 kts | 47° |
| 2026-05-07 16:32 | 48.30172 | 1.04235 | 17300 ft | 357 kts | 47° |
| 2026-05-07 16:32 | 48.31817 | 1.07009 | 16888 ft | 354 kts | 47° |
| 2026-05-07 16:33 | 48.33459 | 1.09779 | 16480 ft | 351 kts | 47° |
| 2026-05-07 16:33 | 48.35075 | 1.12510 | 16077 ft | 349 kts | 47° |
| 2026-05-07 16:33 | 48.36686 | 1.15235 | 15676 ft | 346 kts | 47° |
| 2026-05-07 16:33 | 48.38282 | 1.17937 | 15282 ft | 344 kts | 47° |
| 2026-05-07 16:34 | 48.39866 | 1.20622 | 14888 ft | 342 kts | 47° |
| 2026-05-07 16:34 | 48.41439 | 1.23289 | 14496 ft | 340 kts | 47° |
| 2026-05-07 16:34 | 48.43008 | 1.25951 | 14103 ft | 338 kts | 47° |
| 2026-05-07 16:34 | 48.44565 | 1.28597 | 13707 ft | 337 kts | 47° |
| 2026-05-07 16:35 | 48.46096 | 1.31202 | 13297 ft | 335 kts | 47° |
| 2026-05-07 16:35 | 48.47636 | 1.33824 | 12878 ft | 333 kts | 47° |
| 2026-05-07 16:35 | 48.49169 | 1.36438 | 12486 ft | 331 kts | 47° |
| 2026-05-07 16:35 | 48.50691 | 1.39035 | 12097 ft | 329 kts | 47° |
| 2026-05-07 16:36 | 48.52197 | 1.41607 | 11719 ft | 326 kts | 47° |
| 2026-05-07 16:36 | 48.53695 | 1.44167 | 11360 ft | 324 kts | 47° |
| 2026-05-07 16:36 | 48.55161 | 1.46678 | 11215 ft | 314 kts | 47° |
| 2026-05-07 16:36 | 48.56582 | 1.49117 | 11087 ft | 305 kts | 47° |
| 2026-05-07 16:37 | 48.58030 | 1.51334 | 10896 ft | 289 kts | 38° |
| 2026-05-07 16:37 | 48.59713 | 1.52877 | 10745 ft | 284 kts | 22° |
| 2026-05-07 16:37 | 48.61544 | 1.54052 | 10565 ft | 287 kts | 21° |
| 2026-05-07 16:37 | 48.63403 | 1.55215 | 10390 ft | 290 kts | 21° |
| 2026-05-07 16:38 | 48.65246 | 1.56446 | 10184 ft | 288 kts | 24° |
| 2026-05-07 16:38 | 48.67012 | 1.57758 | 10004 ft | 278 kts | 25° |
| 2026-05-07 16:38 | 48.68715 | 1.59040 | 9818 ft | 277 kts | 25° |
| 2026-05-07 16:38 | 48.70446 | 1.60307 | 9633 ft | 275 kts | 24° |
| 2026-05-07 16:39 | 48.72174 | 1.61545 | 9437 ft | 272 kts | 24° |
| 2026-05-07 16:39 | 48.73877 | 1.62756 | 9261 ft | 269 kts | 24° |
| 2026-05-07 16:39 | 48.75547 | 1.63984 | 9068 ft | 263 kts | 30° |
| 2026-05-07 16:39 | 48.76798 | 1.65983 | 8914 ft | 265 kts | 59° |
| 2026-05-07 16:40 | 48.77728 | 1.68396 | 8752 ft | 272 kts | 56° |
| 2026-05-07 16:40 | 48.78748 | 1.70824 | 8540 ft | 273 kts | 56° |
| 2026-05-07 16:40 | 48.79773 | 1.73228 | 8315 ft | 268 kts | 55° |
| 2026-05-07 16:40 | 48.80782 | 1.75598 | 7898 ft | 265 kts | 55° |
| 2026-05-07 16:41 | 48.81772 | 1.77931 | 7433 ft | 262 kts | 55° |
| 2026-05-07 16:41 | 48.82747 | 1.80236 | 7152 ft | 255 kts | 55° |
| 2026-05-07 16:41 | 48.83705 | 1.82503 | 7002 ft | 256 kts | 55° |
| 2026-05-07 16:41 | 48.84675 | 1.84796 | 6903 ft | 261 kts | 55° |
| 2026-05-07 16:42 | 48.85649 | 1.87103 | 6781 ft | 262 kts | 55° |
| 2026-05-07 16:42 | 48.86616 | 1.89393 | 6635 ft | 253 kts | 56° |
| 2026-05-07 16:42 | 48.87556 | 1.91627 | 6496 ft | 247 kts | 56° |
| 2026-05-07 16:42 | 48.88480 | 1.93819 | 6373 ft | 246 kts | 55° |
| 2026-05-07 16:43 | 48.88876 | 1.94757 | 6320 ft | 249 kts | 56° |
| 2026-05-07 16:43 | 48.89394 | 1.95986 | 6255 ft | 248 kts | 56° |
| 2026-05-07 16:43 | 48.90330 | 1.98211 | 6133 ft | 247 kts | 56° |
| 2026-05-07 16:43 | 48.91225 | 2.00342 | 5976 ft | 240 kts | 56° |
| 2026-05-07 16:44 | 48.92116 | 2.02467 | 5845 ft | 236 kts | 56° |
| 2026-05-07 16:44 | 48.92994 | 2.04557 | 5727 ft | 234 kts | 56° |
| 2026-05-07 16:44 | 48.93867 | 2.06638 | 5611 ft | 233 kts | 56° |
| 2026-05-07 16:44 | 48.94738 | 2.08718 | 5516 ft | 233 kts | 56° |
| 2026-05-07 16:45 | 48.95606 | 2.10793 | 5413 ft | 232 kts | 56° |
| 2026-05-07 16:45 | 48.96466 | 2.12868 | 5300 ft | 229 kts | 59° |
| 2026-05-07 16:45 | 48.97059 | 2.15065 | 5143 ft | 224 kts | 78° |
| 2026-05-07 16:45 | 48.97192 | 2.17393 | 5119 ft | 218 kts | 86° |
| 2026-05-07 16:46 | 48.97265 | 2.19664 | 5033 ft | 212 kts | 84° |
| 2026-05-07 16:46 | 48.97402 | 2.21876 | 4959 ft | 206 kts | 82° |
| 2026-05-07 16:46 | 48.97536 | 2.23980 | 4698 ft | 202 kts | 83° |
| 2026-05-07 16:46 | 48.97657 | 2.26092 | 4418 ft | 197 kts | 83° |
| 2026-05-07 16:47 | 48.97769 | 2.28147 | 4145 ft | 191 kts | 83° |
| 2026-05-07 16:47 | 48.97873 | 2.30087 | 3915 ft | 177 kts | 82° |
| 2026-05-07 16:47 | 48.97967 | 2.31890 | 3653 ft | 164 kts | 82° |
| 2026-05-07 16:47 | 48.98054 | 2.33518 | 3449 ft | 143 kts | 81° |
| 2026-05-07 16:48 | 48.98136 | 2.35030 | 3307 ft | 148 kts | 81° |
| 2026-05-07 16:48 | 48.98223 | 2.36617 | 3083 ft | 149 kts | 81° |
| 2026-05-07 16:48 | 48.98304 | 2.38161 | 2877 ft | 147 kts | 81° |
| 2026-05-07 16:48 | 48.98386 | 2.39698 | 2675 ft | 144 kts | 81° |
| 2026-05-07 16:49 | 48.98467 | 2.41194 | 2475 ft | 141 kts | 81° |
| 2026-05-07 16:49 | 48.98550 | 2.42689 | 2328 ft | 142 kts | 82° |
| 2026-05-07 16:49 | 48.98623 | 2.44196 | 2214 ft | 145 kts | 81° |
| 2026-05-07 16:49 | 48.98713 | 2.45718 | 2027 ft | 145 kts | 81° |
| 2026-05-07 16:50 | 48.98794 | 2.47235 | 1798 ft | 143 kts | 82° |
| 2026-05-07 16:50 | 48.98874 | 2.48723 | 1553 ft | 138 kts | 81° |
| 2026-05-07 16:50 | 48.98954 | 2.50169 | 1332 ft | 140 kts | 83° |
| 2026-05-07 16:50 | 48.99030 | 2.51650 | 1153 ft | 140 kts | 82° |
| 2026-05-07 16:51 | 48.99108 | 2.53136 | 873 ft | 139 kts | 82° |
| 2026-05-07 16:51 | 48.99191 | 2.54595 | 668 ft | 139 kts | 83° |
| 2026-05-07 16:51 | 48.99265 | 2.56038 | 463 ft | 135 kts | 85° |
| 2026-05-07 16:51 | 48.99337 | 2.57417 | 364 ft | 122 kts | 85° |
| 2026-05-07 16:52 | 48.99397 | 2.58528 | 360 ft | 84 kts | 85° |
| 2026-05-07 16:52 | 48.99432 | 2.59183 | 357 ft | 45 kts | 86° |
| 2026-05-07 16:52 | 48.99456 | 2.59636 | 364 ft | 41 kts | 85° |
| 2026-05-07 16:52 | 48.99533 | 2.59944 | 366 ft | 24 kts | 30° |
| 2026-05-07 16:53 | 48.99695 | 2.59971 | 361 ft | 24 kts | 355° |
| 2026-05-07 16:53 | 48.99858 | 2.59965 | 365 ft | 24 kts | 15° |
| 2026-05-07 16:53 | 48.99996 | 2.60056 | 364 ft | 15 kts | 335° |
| 2026-05-07 16:53 | 49.00011 | 2.59943 | 363 ft | 12 kts | 266° |
| 2026-05-07 16:54 | 49.00002 | 2.59769 | 367 ft | 19 kts | 265° |
| 2026-05-07 16:54 | 48.99990 | 2.59564 | 365 ft | 20 kts | 265° |
| 2026-05-07 16:54 | 48.99980 | 2.59354 | 361 ft | 20 kts | 265° |
| 2026-05-07 16:54 | 48.99968 | 2.59145 | 359 ft | 20 kts | 265° |
| 2026-05-07 16:55 | 48.99957 | 2.58938 | 363 ft | 20 kts | 265° |
| 2026-05-07 16:55 | 48.99972 | 2.58760 | 367 ft | 17 kts | 322° |
| 2026-05-07 16:55 | 49.00086 | 2.58766 | 362 ft | 17 kts | 6° |
| 2026-05-07 16:55 | 49.00201 | 2.58758 | 363 ft | 16 kts | 355° |
| 2026-05-07 16:56 | 49.00259 | 2.58751 | 361 ft | 6 kts | 355° |
| 2026-05-07 16:56 | 49.00292 | 2.58715 | 362 ft | 7 kts | 289° |
| 2026-05-07 16:56 | 49.00288 | 2.58626 | 365 ft | 0 kts | 266° |